sensor_id;sensor_type;location;lat;lon;timestamp;P1;durP1;ratioP1;P2;durP2;ratioP2
56519;SDS011;42420;53.586;10.052;2023-02-27T00:02:17;9.55;;;2.45;;
56519;SDS011;42420;53.586;10.052;2023-02-27T00:07:13;7.28;;;2.72;;
56519;SDS011;42420;53.586;10.052;2023-02-27T00:12:10;7.93;;;2.80;;
56519;SDS011;42420;53.586;10.052;2023-02-27T00:17:07;7.60;;;2.63;;
56519;SDS011;42420;53.586;10.052;2023-02-27T00:22:03;9.77;;;2.83;;
56519;SDS011;42420;53.586;10.052;2023-02-27T00:27:00;6.67;;;2.63;;
56519;SDS011;42420;53.586;10.052;2023-02-27T00:31:56;8.17;;;2.80;;
56519;SDS011;42420;53.586;10.052;2023-02-27T00:36:53;11.27;;;3.00;;
56519;SDS011;42420;53.586;10.052;2023-02-27T00:41:50;10.80;;;2.60;;
56519;SDS011;42420;53.586;10.052;2023-02-27T00:46:46;8.43;;;2.72;;
56519;SDS011;42420;53.586;10.052;2023-02-27T00:51:43;8.70;;;2.88;;
56519;SDS011;42420;53.586;10.052;2023-02-27T00:56:39;9.20;;;2.90;;
56519;SDS011;42420;53.586;10.052;2023-02-27T01:01:36;5.90;;;2.67;;
56519;SDS011;42420;53.586;10.052;2023-02-27T01:06:32;7.15;;;2.85;;
56519;SDS011;42420;53.586;10.052;2023-02-27T01:11:29;5.77;;;2.83;;
56519;SDS011;42420;53.586;10.052;2023-02-27T01:16:26;11.32;;;3.22;;
56519;SDS011;42420;53.586;10.052;2023-02-27T01:21:22;7.63;;;3.08;;
56519;SDS011;42420;53.586;10.052;2023-02-27T01:26:19;12.68;;;3.13;;
56519;SDS011;42420;53.586;10.052;2023-02-27T01:31:15;5.50;;;2.73;;
56519;SDS011;42420;53.586;10.052;2023-02-27T01:36:12;10.80;;;3.28;;
56519;SDS011;42420;53.586;10.052;2023-02-27T01:41:09;10.05;;;2.97;;
56519;SDS011;42420;53.586;10.052;2023-02-27T01:46:05;7.70;;;2.88;;
56519;SDS011;42420;53.586;10.052;2023-02-27T01:51:10;6.40;;;2.70;;
56519;SDS011;42420;53.586;10.052;2023-02-27T01:56:10;8.82;;;3.10;;
56519;SDS011;42420;53.586;10.052;2023-02-27T02:01:10;7.95;;;2.75;;
56519;SDS011;42420;53.586;10.052;2023-02-27T02:06:06;7.90;;;2.67;;
56519;SDS011;42420;53.586;10.052;2023-02-27T02:21:39;9.77;;;2.80;;
56519;SDS011;42420;53.586;10.052;2023-02-27T02:27:08;8.18;;;2.65;;
56519;SDS011;42420;53.586;10.052;2023-02-27T02:32:25;6.38;;;2.70;;
56519;SDS011;42420;53.586;10.052;2023-02-27T02:48:37;7.38;;;2.42;;
56519;SDS011;42420;53.586;10.052;2023-02-27T02:53:48;5.30;;;2.20;;
56519;SDS011;42420;53.586;10.052;2023-02-27T02:59:07;7.45;;;2.72;;
56519;SDS011;42420;53.586;10.052;2023-02-27T03:04:13;8.48;;;2.60;;
56519;SDS011;42420;53.586;10.052;2023-02-27T03:09:22;6.00;;;2.35;;
56519;SDS011;42420;53.586;10.052;2023-02-27T03:14:29;5.22;;;2.20;;
56519;SDS011;42420;53.586;10.052;2023-02-27T03:19:51;6.75;;;2.30;;
56519;SDS011;42420;53.586;10.052;2023-02-27T03:24:51;7.97;;;2.60;;
56519;SDS011;42420;53.586;10.052;2023-02-27T03:29:49;9.25;;;2.40;;
56519;SDS011;42420;53.586;10.052;2023-02-27T03:34:56;7.90;;;2.83;;
56519;SDS011;42420;53.586;10.052;2023-02-27T03:40:13;6.30;;;2.07;;
56519;SDS011;42420;53.586;10.052;2023-02-27T03:50:20;9.38;;;3.00;;
56519;SDS011;42420;53.586;10.052;2023-02-27T03:55:21;7.95;;;2.63;;
56519;SDS011;42420;53.586;10.052;2023-02-27T04:00:21;8.63;;;2.65;;
56519;SDS011;42420;53.586;10.052;2023-02-27T04:05:19;9.52;;;2.58;;
56519;SDS011;42420;53.586;10.052;2023-02-27T04:10:23;9.75;;;3.03;;
56519;SDS011;42420;53.586;10.052;2023-02-27T04:21:12;7.43;;;2.85;;
56519;SDS011;42420;53.586;10.052;2023-02-27T04:26:27;7.40;;;3.20;;
56519;SDS011;42420;53.586;10.052;2023-02-27T04:31:38;6.60;;;2.95;;
56519;SDS011;42420;53.586;10.052;2023-02-27T04:36:41;7.10;;;2.80;;
56519;SDS011;42420;53.586;10.052;2023-02-27T04:41:45;5.90;;;2.92;;
56519;SDS011;42420;53.586;10.052;2023-02-27T04:46:45;7.03;;;3.13;;
56519;SDS011;42420;53.586;10.052;2023-02-27T04:51:44;10.95;;;3.58;;
56519;SDS011;42420;53.586;10.052;2023-02-27T04:56:48;9.77;;;3.92;;
56519;SDS011;42420;53.586;10.052;2023-02-27T05:06:55;11.27;;;3.10;;
56519;SDS011;42420;53.586;10.052;2023-02-27T05:11:58;9.35;;;2.72;;
56519;SDS011;42420;53.586;10.052;2023-02-27T05:27:38;11.38;;;3.40;;
56519;SDS011;42420;53.586;10.052;2023-02-27T05:32:54;10.80;;;3.63;;
56519;SDS011;42420;53.586;10.052;2023-02-27T05:43:20;13.38;;;3.78;;
56519;SDS011;42420;53.586;10.052;2023-02-27T05:48:21;12.57;;;4.00;;
56519;SDS011;42420;53.586;10.052;2023-02-27T05:53:23;7.80;;;3.20;;
56519;SDS011;42420;53.586;10.052;2023-02-27T05:58:23;8.60;;;3.20;;
56519;SDS011;42420;53.586;10.052;2023-02-27T06:03:22;10.90;;;3.78;;
56519;SDS011;42420;53.586;10.052;2023-02-27T06:08:19;10.07;;;3.90;;
56519;SDS011;42420;53.586;10.052;2023-02-27T06:13:16;13.07;;;4.18;;
56519;SDS011;42420;53.586;10.052;2023-02-27T06:18:13;9.07;;;3.80;;
56519;SDS011;42420;53.586;10.052;2023-02-27T06:23:11;13.30;;;4.35;;
56519;SDS011;42420;53.586;10.052;2023-02-27T06:28:08;12.40;;;4.70;;
56519;SDS011;42420;53.586;10.052;2023-02-27T06:38:02;11.77;;;3.83;;
56519;SDS011;42420;53.586;10.052;2023-02-27T06:42:58;13.93;;;4.47;;
56519;SDS011;42420;53.586;10.052;2023-02-27T06:47:54;8.13;;;4.20;;
56519;SDS011;42420;53.586;10.052;2023-02-27T06:52:51;11.43;;;3.97;;
56519;SDS011;42420;53.586;10.052;2023-02-27T06:57:47;13.07;;;4.27;;
56519;SDS011;42420;53.586;10.052;2023-02-27T07:02:44;13.43;;;3.90;;
56519;SDS011;42420;53.586;10.052;2023-02-27T07:07:40;11.27;;;4.57;;
56519;SDS011;42420;53.586;10.052;2023-02-27T07:12:37;9.47;;;4.40;;
56519;SDS011;42420;53.586;10.052;2023-02-27T07:17:35;12.50;;;4.78;;
56519;SDS011;42420;53.586;10.052;2023-02-27T07:22:32;12.32;;;4.47;;
56519;SDS011;42420;53.586;10.052;2023-02-27T07:27:29;10.80;;;4.13;;
56519;SDS011;42420;53.586;10.052;2023-02-27T07:32:26;13.43;;;5.72;;
56519;SDS011;42420;53.586;10.052;2023-02-27T07:37:22;16.35;;;4.38;;
56519;SDS011;42420;53.586;10.052;2023-02-27T07:42:22;10.45;;;5.32;;
56519;SDS011;42420;53.586;10.052;2023-02-27T07:47:18;13.52;;;4.97;;
56519;SDS011;42420;53.586;10.052;2023-02-27T07:52:15;12.77;;;3.75;;
56519;SDS011;42420;53.586;10.052;2023-02-27T07:57:11;11.13;;;4.18;;
56519;SDS011;42420;53.586;10.052;2023-02-27T08:02:09;13.88;;;4.55;;
56519;SDS011;42420;53.586;10.052;2023-02-27T08:07:07;11.15;;;4.40;;
56519;SDS011;42420;53.586;10.052;2023-02-27T08:12:03;15.93;;;4.18;;
56519;SDS011;42420;53.586;10.052;2023-02-27T08:17:00;11.98;;;4.57;;
56519;SDS011;42420;53.586;10.052;2023-02-27T08:21:56;9.52;;;4.07;;
56519;SDS011;42420;53.586;10.052;2023-02-27T08:26:53;13.18;;;4.38;;
56519;SDS011;42420;53.586;10.052;2023-02-27T08:31:49;12.02;;;4.05;;
56519;SDS011;42420;53.586;10.052;2023-02-27T08:36:46;12.38;;;4.28;;
56519;SDS011;42420;53.586;10.052;2023-02-27T08:41:43;14.07;;;4.87;;
56519;SDS011;42420;53.586;10.052;2023-02-27T08:46:40;16.67;;;3.90;;
56519;SDS011;42420;53.586;10.052;2023-02-27T08:51:36;14.55;;;4.63;;
56519;SDS011;42420;53.586;10.052;2023-02-27T08:56:33;11.05;;;2.88;;
56519;SDS011;42420;53.586;10.052;2023-02-27T09:01:29;8.82;;;3.53;;
56519;SDS011;42420;53.586;10.052;2023-02-27T09:06:29;9.55;;;2.80;;
56519;SDS011;42420;53.586;10.052;2023-02-27T09:11:26;9.15;;;2.63;;
56519;SDS011;42420;53.586;10.052;2023-02-27T09:21:20;8.10;;;2.10;;
56519;SDS011;42420;53.586;10.052;2023-02-27T09:26:18;7.32;;;2.35;;
56519;SDS011;42420;53.586;10.052;2023-02-27T09:31:16;8.45;;;2.15;;
56519;SDS011;42420;53.586;10.052;2023-02-27T09:36:14;7.47;;;2.17;;
56519;SDS011;42420;53.586;10.052;2023-02-27T09:46:30;7.10;;;1.60;;
56519;SDS011;42420;53.586;10.052;2023-02-27T09:51:26;7.22;;;2.15;;
56519;SDS011;42420;53.586;10.052;2023-02-27T10:01:56;8.13;;;1.33;;
56519;SDS011;42420;53.586;10.052;2023-02-27T10:17:36;5.38;;;1.42;;
56519;SDS011;42420;53.586;10.052;2023-02-27T10:22:37;7.40;;;1.20;;
56519;SDS011;42420;53.586;10.052;2023-02-27T10:27:37;7.88;;;1.52;;
56519;SDS011;42420;53.586;10.052;2023-02-27T10:32:33;4.38;;;1.30;;
56519;SDS011;42420;53.586;10.052;2023-02-27T10:37:30;7.25;;;1.60;;
56519;SDS011;42420;53.586;10.052;2023-02-27T10:42:29;5.88;;;1.50;;
56519;SDS011;42420;53.586;10.052;2023-02-27T10:47:27;5.05;;;1.38;;
56519;SDS011;42420;53.586;10.052;2023-02-27T10:57:30;5.55;;;1.55;;
56519;SDS011;42420;53.586;10.052;2023-02-27T11:07:36;5.95;;;1.90;;
56519;SDS011;42420;53.586;10.052;2023-02-27T11:12:33;6.28;;;1.67;;
56519;SDS011;42420;53.586;10.052;2023-02-27T11:17:31;5.72;;;2.05;;
56519;SDS011;42420;53.586;10.052;2023-02-27T11:22:32;7.03;;;1.40;;
56519;SDS011;42420;53.586;10.052;2023-02-27T11:27:29;6.03;;;1.83;;
56519;SDS011;42420;53.586;10.052;2023-02-27T11:32:36;4.88;;;1.40;;
56519;SDS011;42420;53.586;10.052;2023-02-27T11:37:38;4.38;;;1.30;;
56519;SDS011;42420;53.586;10.052;2023-02-27T11:42:36;5.97;;;2.00;;
56519;SDS011;42420;53.586;10.052;2023-02-27T11:47:42;5.30;;;1.63;;
56519;SDS011;42420;53.586;10.052;2023-02-27T11:52:47;5.07;;;1.70;;
56519;SDS011;42420;53.586;10.052;2023-02-27T11:57:49;6.95;;;1.60;;
56519;SDS011;42420;53.586;10.052;2023-02-27T12:08:15;7.15;;;1.88;;
56519;SDS011;42420;53.586;10.052;2023-02-27T12:13:14;7.03;;;1.30;;
56519;SDS011;42420;53.586;10.052;2023-02-27T12:18:15;6.65;;;1.90;;
56519;SDS011;42420;53.586;10.052;2023-02-27T12:23:22;3.22;;;1.13;;
56519;SDS011;42420;53.586;10.052;2023-02-27T12:39:12;6.32;;;1.60;;
56519;SDS011;42420;53.586;10.052;2023-02-27T12:49:34;9.13;;;1.58;;
56519;SDS011;42420;53.586;10.052;2023-02-27T12:54:35;5.97;;;1.48;;
56519;SDS011;42420;53.586;10.052;2023-02-27T12:59:39;6.43;;;1.73;;
56519;SDS011;42420;53.586;10.052;2023-02-27T13:09:51;4.30;;;1.05;;
56519;SDS011;42420;53.586;10.052;2023-02-27T13:20:10;3.97;;;1.00;;
56519;SDS011;42420;53.586;10.052;2023-02-27T13:25:15;4.53;;;1.15;;
56519;SDS011;42420;53.586;10.052;2023-02-27T13:35:46;5.93;;;0.98;;
56519;SDS011;42420;53.586;10.052;2023-02-27T13:40:46;5.68;;;1.50;;
56519;SDS011;42420;53.586;10.052;2023-02-27T13:50:50;4.82;;;1.25;;
56519;SDS011;42420;53.586;10.052;2023-02-27T13:55:56;7.25;;;1.30;;
56519;SDS011;42420;53.586;10.052;2023-02-27T14:00:57;5.88;;;0.98;;
56519;SDS011;42420;53.586;10.052;2023-02-27T14:05:56;4.05;;;1.00;;
56519;SDS011;42420;53.586;10.052;2023-02-27T14:16:04;4.88;;;1.00;;
56519;SDS011;42420;53.586;10.052;2023-02-27T14:21:03;2.78;;;0.88;;
56519;SDS011;42420;53.586;10.052;2023-02-27T14:26:16;4.97;;;1.20;;
56519;SDS011;42420;53.586;10.052;2023-02-27T14:31:26;4.40;;;1.25;;
56519;SDS011;42420;53.586;10.052;2023-02-27T14:36:27;6.80;;;1.42;;
56519;SDS011;42420;53.586;10.052;2023-02-27T14:41:41;7.68;;;1.10;;
56519;SDS011;42420;53.586;10.052;2023-02-27T14:46:44;6.32;;;1.35;;
56519;SDS011;42420;53.586;10.052;2023-02-27T14:51:41;3.80;;;0.70;;
56519;SDS011;42420;53.586;10.052;2023-02-27T15:01:57;4.00;;;0.82;;
56519;SDS011;42420;53.586;10.052;2023-02-27T15:07:11;4.32;;;0.90;;
56519;SDS011;42420;53.586;10.052;2023-02-27T15:12:33;5.00;;;1.23;;
56519;SDS011;42420;53.586;10.052;2023-02-27T15:17:41;5.40;;;1.05;;
56519;SDS011;42420;53.586;10.052;2023-02-27T15:23:19;6.88;;;1.08;;
56519;SDS011;42420;53.586;10.052;2023-02-27T15:28:44;6.75;;;1.27;;
56519;SDS011;42420;53.586;10.052;2023-02-27T15:34:07;7.35;;;1.25;;
56519;SDS011;42420;53.586;10.052;2023-02-27T15:39:31;4.93;;;1.30;;
56519;SDS011;42420;53.586;10.052;2023-02-27T15:45:13;8.85;;;1.45;;
56519;SDS011;42420;53.586;10.052;2023-02-27T15:50:28;5.40;;;1.30;;
56519;SDS011;42420;53.586;10.052;2023-02-27T15:55:36;7.60;;;1.55;;
56519;SDS011;42420;53.586;10.052;2023-02-27T16:00:47;6.90;;;1.80;;
56519;SDS011;42420;53.586;10.052;2023-02-27T16:06:01;6.40;;;2.00;;
56519;SDS011;42420;53.586;10.052;2023-02-27T16:18:04;5.82;;;1.80;;
56519;SDS011;42420;53.586;10.052;2023-02-27T16:23:42;5.75;;;2.20;;
56519;SDS011;42420;53.586;10.052;2023-02-27T16:28:58;9.35;;;2.33;;
56519;SDS011;42420;53.586;10.052;2023-02-27T16:39:40;6.65;;;2.40;;
56519;SDS011;42420;53.586;10.052;2023-02-27T16:44:36;7.60;;;2.17;;
56519;SDS011;42420;53.586;10.052;2023-02-27T16:49:53;7.93;;;1.90;;
56519;SDS011;42420;53.586;10.052;2023-02-27T16:55:00;6.03;;;1.60;;
56519;SDS011;42420;53.586;10.052;2023-02-27T17:00:00;8.25;;;1.80;;
56519;SDS011;42420;53.586;10.052;2023-02-27T17:05:32;6.57;;;1.80;;
56519;SDS011;42420;53.586;10.052;2023-02-27T17:10:41;8.10;;;1.77;;
56519;SDS011;42420;53.586;10.052;2023-02-27T17:15:52;5.68;;;1.92;;
56519;SDS011;42420;53.586;10.052;2023-02-27T17:20:57;6.10;;;2.05;;
56519;SDS011;42420;53.586;10.052;2023-02-27T17:25:56;7.75;;;2.28;;
56519;SDS011;42420;53.586;10.052;2023-02-27T17:30:53;5.68;;;1.85;;
56519;SDS011;42420;53.586;10.052;2023-02-27T17:36:04;6.40;;;2.10;;
56519;SDS011;42420;53.586;10.052;2023-02-27T17:41:25;9.95;;;2.40;;
56519;SDS011;42420;53.586;10.052;2023-02-27T17:46:34;8.02;;;2.33;;
56519;SDS011;42420;53.586;10.052;2023-02-27T17:51:53;9.73;;;2.70;;
56519;SDS011;42420;53.586;10.052;2023-02-27T17:56:55;7.32;;;2.97;;
56519;SDS011;42420;53.586;10.052;2023-02-27T18:02:10;7.90;;;2.10;;
56519;SDS011;42420;53.586;10.052;2023-02-27T18:07:22;5.75;;;1.80;;
56519;SDS011;42420;53.586;10.052;2023-02-27T18:12:24;8.20;;;2.47;;
56519;SDS011;42420;53.586;10.052;2023-02-27T18:17:32;11.02;;;3.40;;
56519;SDS011;42420;53.586;10.052;2023-02-27T18:22:40;5.07;;;1.58;;
56519;SDS011;42420;53.586;10.052;2023-02-27T18:27:50;6.38;;;1.80;;
56519;SDS011;42420;53.586;10.052;2023-02-27T18:32:49;5.80;;;1.90;;
56519;SDS011;42420;53.586;10.052;2023-02-27T18:37:58;6.65;;;2.00;;
56519;SDS011;42420;53.586;10.052;2023-02-27T18:43:07;6.13;;;2.00;;
56519;SDS011;42420;53.586;10.052;2023-02-27T18:48:25;6.75;;;2.13;;
56519;SDS011;42420;53.586;10.052;2023-02-27T18:53:22;7.80;;;2.20;;
56519;SDS011;42420;53.586;10.052;2023-02-27T18:58:41;8.77;;;2.42;;
56519;SDS011;42420;53.586;10.052;2023-02-27T19:03:50;7.22;;;2.13;;
56519;SDS011;42420;53.586;10.052;2023-02-27T19:08:58;5.75;;;2.00;;
56519;SDS011;42420;53.586;10.052;2023-02-27T19:14:10;7.57;;;2.17;;
56519;SDS011;42420;53.586;10.052;2023-02-27T19:19:16;7.15;;;2.40;;
56519;SDS011;42420;53.586;10.052;2023-02-27T19:24:26;6.97;;;2.00;;
56519;SDS011;42420;53.586;10.052;2023-02-27T19:29:36;7.85;;;2.22;;
56519;SDS011;42420;53.586;10.052;2023-02-27T19:34:36;9.43;;;3.10;;
56519;SDS011;42420;53.586;10.052;2023-02-27T19:39:34;8.70;;;2.70;;
56519;SDS011;42420;53.586;10.052;2023-02-27T19:44:37;9.68;;;3.25;;
56519;SDS011;42420;53.586;10.052;2023-02-27T19:49:40;10.48;;;2.90;;
56519;SDS011;42420;53.586;10.052;2023-02-27T19:54:41;8.18;;;2.42;;
56519;SDS011;42420;53.586;10.052;2023-02-27T19:59:41;5.30;;;2.13;;
56519;SDS011;42420;53.586;10.052;2023-02-27T20:04:40;7.03;;;2.10;;
56519;SDS011;42420;53.586;10.052;2023-02-27T20:09:58;7.03;;;2.05;;
56519;SDS011;42420;53.586;10.052;2023-02-27T20:14:59;7.50;;;2.38;;
56519;SDS011;42420;53.586;10.052;2023-02-27T20:20:14;9.25;;;1.85;;
56519;SDS011;42420;53.586;10.052;2023-02-27T20:25:18;9.40;;;2.10;;
56519;SDS011;42420;53.586;10.052;2023-02-27T20:30:25;8.27;;;2.55;;
56519;SDS011;42420;53.586;10.052;2023-02-27T20:35:42;5.55;;;1.80;;
56519;SDS011;42420;53.586;10.052;2023-02-27T20:40:44;9.07;;;2.08;;
56519;SDS011;42420;53.586;10.052;2023-02-27T20:46:09;9.50;;;2.10;;
56519;SDS011;42420;53.586;10.052;2023-02-27T20:51:40;8.00;;;2.72;;
56519;SDS011;42420;53.586;10.052;2023-02-27T20:57:02;7.25;;;2.63;;
56519;SDS011;42420;53.586;10.052;2023-02-27T21:02:08;9.20;;;3.03;;
56519;SDS011;42420;53.586;10.052;2023-02-27T21:07:13;6.10;;;1.70;;
56519;SDS011;42420;53.586;10.052;2023-02-27T21:23:21;7.97;;;2.15;;
56519;SDS011;42420;53.586;10.052;2023-02-27T21:33:46;7.00;;;2.60;;
56519;SDS011;42420;53.586;10.052;2023-02-27T21:39:12;9.30;;;2.00;;
56519;SDS011;42420;53.586;10.052;2023-02-27T21:44:21;8.68;;;2.38;;
56519;SDS011;42420;53.586;10.052;2023-02-27T21:49:28;8.43;;;2.58;;
56519;SDS011;42420;53.586;10.052;2023-02-27T21:54:38;9.13;;;2.97;;
56519;SDS011;42420;53.586;10.052;2023-02-27T21:59:37;8.18;;;3.05;;
56519;SDS011;42420;53.586;10.052;2023-02-27T22:04:40;7.18;;;2.40;;
56519;SDS011;42420;53.586;10.052;2023-02-27T22:09:56;6.57;;;2.88;;
56519;SDS011;42420;53.586;10.052;2023-02-27T22:15:05;8.05;;;2.53;;
56519;SDS011;42420;53.586;10.052;2023-02-27T22:20:09;9.57;;;2.30;;
56519;SDS011;42420;53.586;10.052;2023-02-27T22:25:15;6.97;;;2.08;;
56519;SDS011;42420;53.586;10.052;2023-02-27T22:30:18;8.45;;;3.55;;
56519;SDS011;42420;53.586;10.052;2023-02-27T22:35:30;7.63;;;2.28;;
56519;SDS011;42420;53.586;10.052;2023-02-27T22:45:43;9.07;;;3.65;;
56519;SDS011;42420;53.586;10.052;2023-02-27T22:50:54;8.55;;;2.50;;
56519;SDS011;42420;53.586;10.052;2023-02-27T22:55:55;8.60;;;2.70;;
56519;SDS011;42420;53.586;10.052;2023-02-27T23:00:59;6.57;;;2.10;;
56519;SDS011;42420;53.586;10.052;2023-02-27T23:05:59;8.70;;;2.38;;
56519;SDS011;42420;53.586;10.052;2023-02-27T23:11:03;7.40;;;2.05;;
56519;SDS011;42420;53.586;10.052;2023-02-27T23:16:17;6.73;;;2.00;;
56519;SDS011;42420;53.586;10.052;2023-02-27T23:21:20;6.82;;;2.00;;
56519;SDS011;42420;53.586;10.052;2023-02-27T23:26:24;7.95;;;2.22;;
56519;SDS011;42420;53.586;10.052;2023-02-27T23:31:37;8.10;;;2.10;;
56519;SDS011;42420;53.586;10.052;2023-02-27T23:41:44;7.07;;;2.10;;
56519;SDS011;42420;53.586;10.052;2023-02-27T23:46:59;5.40;;;2.00;;
56519;SDS011;42420;53.586;10.052;2023-02-27T23:52:01;6.00;;;1.80;;
56519;SDS011;42420;53.586;10.052;2023-02-27T23:57:04;42.30;;;23.63;;
